Portada
METAR-TAF:

METAR-TAF

Aeroports :

Bratsk, Rússia

latitud: 56-22-15N, longitud: 101-41-55E, altitud: 490 m

Observació

L'informe es va fer fa 28 minuts, a les 11:00 UTC
Vent 2 kt amb direcció variable
Temperatura -20°C
Humitat 77%
Pressió 1027 hPa
Visibilitat: 6000 m

METAR: UIBB 251100Z VRB01MPS 6000 NSC M20/M23 Q1027 R30/490340 NOSIG RMK QFE727/0970

Hora: 19:28 (11:28 UTC)

Pronòstic

L'informe es va fer fa 3 hores i 28 minuts, a les 08:00 UTC
Pronòstic vàlid del 25 a les 09 UTC al 26 a les 09 UTC
Vent 6 kt del Sud/Sud-Est
Visibilitat 10 km o més
Cel ennuvolat a una alçada de 1600 ft
neu
Temporalment
l' 25 a les 09 UTC al 25 a les 21 UTC
Visibilitat: 1900 m
a una alçada de 900 ft
neu, boirina

TAF: UIBB 250800Z 2509/2609 16003MPS 9999 -SN BKN016 TEMPO 2509/2521 1900 SN BR VV009

Observacions i pronòstics meteorològics de més de 4000 aeroports (METAR i TAF).

Les estacions disponibles són els punts grocs i vermells al mapa.

Posi el ratolí al punt desitjat per veure el nom de l'estació.

Feu clic per veure les observacions i els pronòstics meteorològics.

Per canviar el mapa: feu clic els botons verds amb una creu de color negre per apropar; al botó verd amb un guió per allunyar la imatge; o en les fletxes verdes per a mapes adjacents.


METAR-TAF: